Time;durP1;ratioP1;P1;durP2;ratioP2;P2;SDS_P1;SDS_P2;PMS_P1;PMS_P2;Temp;Humidity;BMP_temperature;BMP_pressure;BME280_temperature;BME280_humidity;BME280_pressure;Samples;Min_cycle;Max_cycle;Signal;HPM_P1;HPM_P2
2022/11/09 00:01:50;;;;;;;65.80;28.10;;;;;;;6.39;100.00;99466.40;100556;1336;24386;-33
2022/11/09 00:04:16;;;;;;;60.10;26.30;;;;;;;6.37;100.00;99459.49;100499;1324;22716;-35
2022/11/09 00:06:41;;;;;;;52.40;21.90;;;;;;;6.36;100.00;99459.56;100495;1340;24591;-32
2022/11/09 00:09:08;;;;;;;63.70;27.90;;;;;;;6.31;100.00;99458.20;100575;1323;24284;-36
2022/11/09 00:11:36;;;;;;;48.20;22.60;;;;;;;6.33;100.00;99454.94;100566;1332;22769;-32
2022/11/09 00:14:01;;;;;;;46.90;22.40;;;;;;;6.37;100.00;99457.02;100638;1334;22522;-35
2022/11/09 00:16:27;;;;;;;50.70;21.90;;;;;;;6.39;100.00;99457.16;100628;1334;24296;-37
2022/11/09 00:18:54;;;;;;;52.20;25.70;;;;;;;6.37;100.00;99452.95;100532;1346;22758;-36
2022/11/09 00:21:21;;;;;;;38.90;20.20;;;;;;;6.36;100.00;99449.13;100581;1348;23119;-37
2022/11/09 00:23:47;;;;;;;69.80;26.90;;;;;;;6.36;100.00;99451.67;100595;1346;23223;-34
2022/11/09 00:26:14;;;;;;;47.00;20.50;;;;;;;6.42;100.00;99458.59;100583;1348;22750;-34
2022/11/09 00:28:39;;;;;;;58.60;25.90;;;;;;;6.43;100.00;99456.40;100524;1340;22764;-33
2022/11/09 00:31:07;;;;;;;47.10;21.70;;;;;;;6.46;100.00;99461.86;100599;1348;24497;-36
2022/11/09 00:33:33;;;;;;;61.30;26.00;;;;;;;6.52;100.00;99461.52;100471;1340;22520;-33
2022/11/09 00:36:01;;;;;;;58.90;29.60;;;;;;;6.53;100.00;99458.64;100403;1347;23232;-37
2022/11/09 00:38:27;;;;;;;54.10;23.90;;;;;;;6.53;100.00;99455.02;100630;1334;22520;-37
2022/11/09 00:40:52;;;;;;;53.50;23.70;;;;;;;6.50;100.00;99443.98;100594;1338;23086;-37
2022/11/09 00:43:18;;;;;;;50.20;24.60;;;;;;;6.47;100.00;99434.21;100543;1340;23115;-34
2022/11/09 00:45:45;;;;;;;46.70;24.40;;;;;;;6.42;100.00;99433.11;100421;1333;22511;-36
2022/11/09 00:48:11;;;;;;;33.40;16.70;;;;;;;6.39;100.00;99426.25;100644;1342;22498;-33
2022/11/09 00:50:37;;;;;;;33.90;17.30;;;;;;;6.38;100.00;99428.85;100573;1345;23136;-33
2022/11/09 00:53:02;;;;;;;34.90;15.20;;;;;;;6.37;100.00;99433.31;100482;1339;22765;-36
2022/11/09 00:55:29;;;;;;;46.90;20.10;;;;;;;6.38;100.00;99441.20;100581;1324;22812;-34
2022/11/09 00:57:54;;;;;;;35.00;18.70;;;;;;;6.45;100.00;99446.55;100580;1346;22751;-35
2022/11/09 01:00:21;;;;;;;54.60;26.70;;;;;;;6.52;100.00;99447.31;100589;1339;23063;-32
2022/11/09 01:02:46;;;;;;;56.40;24.00;;;;;;;6.61;100.00;99440.11;100578;1343;24312;-32
2022/11/09 01:05:12;;;;;;;44.30;22.70;;;;;;;6.63;100.00;99437.09;100583;1346;22753;-33
2022/11/09 01:07:38;;;;;;;50.60;20.70;;;;;;;6.62;100.00;99433.69;100514;1344;24381;-33
2022/11/09 01:10:05;;;;;;;49.80;22.20;;;;;;;6.67;100.00;99427.59;100573;1346;22763;-33
2022/11/09 01:12:30;;;;;;;39.20;20.40;;;;;;;6.69;100.00;99425.77;100576;1346;23074;-32
2022/11/09 01:14:56;;;;;;;52.60;22.20;;;;;;;6.73;100.00;99422.98;100571;1328;24420;-33
2022/11/09 01:17:22;;;;;;;42.50;18.00;;;;;;;6.74;100.00;99417.20;100464;1339;25606;-32
2022/11/09 01:19:49;;;;;;;48.00;21.60;;;;;;;6.73;100.00;99416.08;100586;1346;22509;-35
2022/11/09 01:22:15;;;;;;;44.90;20.70;;;;;;;6.71;100.00;99415.95;100588;1335;24316;-31
2022/11/09 01:24:41;;;;;;;43.80;20.30;;;;;;;6.67;100.00;99411.38;100421;1348;23068;-34
2022/11/09 01:27:06;;;;;;;36.10;15.40;;;;;;;6.66;100.00;99412.55;100517;1335;24383;-31
2022/11/09 01:29:32;;;;;;;42.30;22.90;;;;;;;6.71;100.00;99417.65;100546;1338;23064;-35
2022/11/09 01:31:58;;;;;;;53.00;22.20;;;;;;;6.77;100.00;99420.92;100591;1340;24439;-35
2022/11/09 01:34:23;;;;;;;45.10;21.30;;;;;;;6.81;100.00;99421.58;100533;1334;23252;-35
2022/11/09 01:36:50;;;;;;;53.80;20.70;;;;;;;6.85;100.00;99418.77;100648;1337;24343;-31
2022/11/09 01:39:18;;;;;;;45.70;22.30;;;;;;;6.90;100.00;99420.13;100536;1343;24880;-33
2022/11/09 01:41:44;;;;;;;52.40;23.00;;;;;;;6.94;100.00;99422.40;100585;1334;22509;-34
2022/11/09 01:44:14;;;;;;;46.70;23.90;;;;;;;6.98;100.00;99424.80;100633;1343;24799;-35
2022/11/09 01:46:46;;;;;;;46.30;21.90;;;;;;;6.98;100.00;99423.04;100616;1346;22928;-34
2022/11/09 01:49:18;;;;;;;37.70;18.60;;;;;;;7.01;100.00;99425.13;100662;1332;22506;-34
2022/11/09 01:51:48;;;;;;;51.30;23.70;;;;;;;6.99;100.00;99424.50;100585;1331;23352;-34
2022/11/09 01:54:17;;;;;;;32.50;12.90;;;;;;;6.96;100.00;99418.20;100577;1344;24553;-36
2022/11/09 01:56:43;;;;;;;39.90;20.40;;;;;;;6.96;100.00;99417.15;100612;1346;24429;-35
2022/11/09 01:59:12;;;;;;;41.00;17.90;;;;;;;6.93;100.00;99413.43;100522;1334;22764;-36
2022/11/09 02:01:38;;;;;;;52.70;21.80;;;;;;;6.93;100.00;99402.69;100643;1337;22557;-33
2022/11/09 02:04:08;;;;;;;49.20;20.70;;;;;;;6.93;100.00;99406.70;100546;1340;22920;-33
2022/11/09 02:06:34;;;;;;;38.30;19.80;;;;;;;6.93;100.00;99408.80;100599;1348;24562;-32
2022/11/09 02:09:05;;;;;;;44.20;16.10;;;;;;;6.92;100.00;99407.27;100435;1340;22764;-33
2022/11/09 02:11:30;;;;;;;32.00;15.80;;;;;;;6.91;100.00;99409.84;100620;1347;25276;-33
2022/11/09 02:13:58;;;;;;;40.70;19.10;;;;;;;6.92;100.00;99411.42;100552;1347;24450;-36
2022/11/09 02:16:24;;;;;;;47.00;22.30;;;;;;;6.96;100.00;99418.05;100578;1334;23083;-36
2022/11/09 02:18:52;;;;;;;49.10;20.90;;;;;;;6.98;100.00;99422.38;100602;1333;24488;-32
2022/11/09 02:21:19;;;;;;;45.20;20.60;;;;;;;7.00;100.00;99417.95;100630;1348;24383;-36
2022/11/09 02:23:45;;;;;;;37.30;18.80;;;;;;;6.99;100.00;99409.80;100506;1346;24487;-35
2022/11/09 02:26:17;;;;;;;26.80;13.70;;;;;;;6.95;100.00;99407.12;100574;1346;23042;-36
2022/11/09 02:28:43;;;;;;;32.10;15.80;;;;;;;6.91;100.00;99401.05;100515;1340;24497;-36
2022/11/09 02:31:09;;;;;;;48.00;18.30;;;;;;;6.84;100.00;99398.61;100510;1346;23250;-35
2022/11/09 02:33:42;;;;;;;39.00;17.20;;;;;;;6.80;100.00;99394.80;100452;1340;22759;-35
2022/11/09 02:36:08;;;;;;;47.60;21.30;;;;;;;6.79;100.00;99402.55;100649;1340;22546;-37
2022/11/09 02:38:33;;;;;;;34.50;15.50;;;;;;;6.79;100.00;99398.41;100547;1346;23163;-36
2022/11/09 02:40:59;;;;;;;30.60;15.50;;;;;;;6.76;100.00;99396.52;100453;1341;22738;-33
2022/11/09 02:43:24;;;;;;;34.60;16.40;;;;;;;6.72;100.00;99400.06;100558;1325;23107;-36
2022/11/09 02:45:50;;;;;;;32.00;15.90;;;;;;;6.75;100.00;99400.11;100585;1343;22762;-34
2022/11/09 02:48:16;;;;;;;39.00;18.20;;;;;;;6.78;100.00;99406.38;100669;1327;23043;-33
2022/11/09 02:50:41;;;;;;;33.40;16.60;;;;;;;6.82;100.00;99402.06;100521;1346;24602;-33
2022/11/09 02:53:07;;;;;;;47.20;22.40;;;;;;;6.83;100.00;99398.59;100392;1342;23437;-33
2022/11/09 02:55:33;;;;;;;45.60;21.50;;;;;;;6.85;100.00;99399.95;100477;1341;24437;-33
2022/11/09 02:58:00;;;;;;;34.30;17.20;;;;;;;6.83;100.00;99394.05;100550;1347;24591;-36
2022/11/09 03:00:26;;;;;;;46.50;23.90;;;;;;;6.85;100.00;99396.25;100537;1346;23115;-36
2022/11/09 03:02:52;;;;;;;49.80;18.90;;;;;;;6.89;100.00;99407.81;100661;1340;22863;-38
2022/11/09 03:05:18;;;;;;;50.50;23.60;;;;;;;6.99;100.00;99403.43;100483;1342;24463;-36
2022/11/09 03:07:44;;;;;;;43.60;19.30;;;;;;;7.05;100.00;99404.29;100607;1338;24486;-37
2022/11/09 03:10:10;;;;;;;44.10;20.90;;;;;;;7.06;100.00;99401.46;100527;1318;24298;-36
2022/11/09 03:12:35;;;;;;;36.80;16.40;;;;;;;7.06;100.00;99396.56;100505;1342;24489;-33
2022/11/09 03:15:05;;;;;;;52.40;22.00;;;;;;;7.03;100.00;99393.77;100552;1330;22510;-36
2022/11/09 03:17:31;;;;;;;41.40;21.70;;;;;;;6.96;100.00;99387.92;100613;1327;24375;-37
2022/11/09 03:19:57;;;;;;;37.30;14.80;;;;;;;6.91;100.00;99383.08;100583;1332;24588;-36
2022/11/09 03:22:22;;;;;;;34.70;16.70;;;;;;;6.85;100.00;99378.42;100613;1344;24357;-36
2022/11/09 03:24:48;;;;;;;42.80;20.40;;;;;;;6.81;100.00;99380.98;100580;1345;23133;-32
2022/11/09 03:27:14;;;;;;;39.80;17.80;;;;;;;6.83;100.00;99385.52;100479;1333;24382;-35
2022/11/09 03:29:39;;;;;;;36.70;16.60;;;;;;;6.88;100.00;99386.59;100531;1340;24376;-36
2022/11/09 03:32:05;;;;;;;41.00;19.40;;;;;;;6.86;100.00;99389.46;100590;1342;24372;-33
2022/11/09 03:34:31;;;;;;;22.20;12.80;;;;;;;6.84;100.00;99396.14;100542;1346;24382;-36
2022/11/09 03:36:56;;;;;;;30.40;14.50;;;;;;;6.81;100.00;99397.23;100511;1338;22885;-33
2022/11/09 03:39:22;;;;;;;32.50;15.80;;;;;;;6.82;100.00;99397.95;100540;1346;24347;-37
2022/11/09 03:41:48;;;;;;;43.50;18.00;;;;;;;6.82;100.00;99401.50;100564;1345;22890;-35
2022/11/09 03:44:13;;;;;;;43.20;19.20;;;;;;;6.84;100.00;99397.59;100394;1341;22870;-36
2022/11/09 03:46:39;;;;;;;46.40;20.90;;;;;;;6.85;100.00;99398.29;100500;1334;24411;-36
2022/11/09 03:49:04;;;;;;;36.20;17.70;;;;;;;6.85;100.00;99401.05;100557;1333;23297;-33
2022/11/09 03:51:30;;;;;;;33.50;18.20;;;;;;;6.85;100.00;99402.05;100533;1328;23096;-36
2022/11/09 03:53:56;;;;;;;30.70;15.90;;;;;;;6.86;100.00;99399.85;100574;1341;22584;-32
2022/11/09 03:56:21;;;;;;;39.90;19.60;;;;;;;6.83;100.00;99397.25;100587;1339;24502;-32
2022/11/09 03:58:48;;;;;;;34.40;16.90;;;;;;;6.83;100.00;99399.02;100580;1343;23128;-32
2022/11/09 04:01:13;;;;;;;35.30;18.20;;;;;;;6.87;100.00;99399.70;100640;1342;22772;-33
2022/11/09 04:03:39;;;;;;;38.10;15.90;;;;;;;6.86;100.00;99402.15;100575;1341;24497;-36
2022/11/09 04:06:05;;;;;;;49.10;22.20;;;;;;;6.86;100.00;99401.72;100530;1336;23124;-34
2022/11/09 04:08:30;;;;;;;37.00;19.00;;;;;;;6.85;100.00;99391.52;100114;1341;587386;-31
2022/11/09 04:10:56;;;;;;;31.80;16.20;;;;;;;6.89;100.00;99388.39;100550;1341;24322;-32
2022/11/09 04:13:21;;;;;;;40.50;18.90;;;;;;;6.94;100.00;99392.92;100535;1341;23233;-32
2022/11/09 04:15:47;;;;;;;37.30;15.70;;;;;;;7.00;100.00;99386.46;100583;1340;24497;-35
2022/11/09 04:18:14;;;;;;;56.50;22.10;;;;;;;7.00;100.00;99387.64;100651;1333;24298;-36
2022/11/09 04:20:40;;;;;;;28.10;15.70;;;;;;;7.04;100.00;99389.98;100611;1340;22771;-32
2022/11/09 04:23:06;;;;;;;39.30;18.50;;;;;;;7.09;100.00;99391.99;100565;1341;22765;-35
2022/11/09 04:25:33;;;;;;;44.70;21.40;;;;;;;7.08;100.00;99385.58;100551;1341;24295;-36
2022/11/09 04:27:59;;;;;;;36.60;19.40;;;;;;;7.05;100.00;99384.29;100588;1341;23100;-33
2022/11/09 04:30:26;;;;;;;37.30;17.70;;;;;;;7.08;100.00;99377.59;100535;1340;22753;-33
2022/11/09 04:32:53;;;;;;;35.60;16.90;;;;;;;7.02;100.00;99373.41;100608;1341;22515;-33
2022/11/09 04:35:19;;;;;;;36.30;19.70;;;;;;;7.00;100.00;99372.89;100563;1341;23175;-33
2022/11/09 04:38:05;;;;;;;23.30;10.80;;;;;;;6.94;100.00;99369.38;100557;1335;23235;-36
2022/11/09 04:40:32;;;;;;;30.90;15.60;;;;;;;6.87;100.00;99372.44;100516;1340;24766;-36
2022/11/09 04:42:59;;;;;;;30.50;13.70;;;;;;;6.84;100.00;99370.32;100607;1340;25937;-36
2022/11/09 04:45:25;;;;;;;35.40;17.00;;;;;;;6.81;100.00;99367.16;100597;1339;22768;-33
2022/11/09 04:47:56;;;;;;;33.30;16.70;;;;;;;6.80;100.00;99366.33;100579;1341;24383;-36
2022/11/09 04:50:22;;;;;;;43.10;20.50;;;;;;;6.77;100.00;99368.23;100517;1341;22850;-34
2022/11/09 04:52:47;;;;;;;37.00;18.40;;;;;;;6.76;100.00;99379.33;100521;1340;22757;-36
2022/11/09 04:55:13;;;;;;;48.40;20.20;;;;;;;6.84;100.00;99383.30;100613;1333;24383;-36
2022/11/09 04:57:38;;;;;;;38.60;17.00;;;;;;;6.87;100.00;99375.61;100589;1340;22856;-32
2022/11/09 05:00:06;;;;;;;45.10;21.10;;;;;;;6.87;100.00;99366.41;100470;1341;23113;-33
2022/11/09 05:02:32;;;;;;;43.00;18.70;;;;;;;6.87;100.00;99366.73;100532;1334;23221;-33
2022/11/09 05:04:57;;;;;;;36.90;15.50;;;;;;;6.86;100.00;99367.45;100544;1341;23259;-36
2022/11/09 05:07:23;;;;;;;40.10;20.50;;;;;;;6.85;100.00;99367.52;100504;1341;24475;-33
2022/11/09 05:09:48;;;;;;;41.10;17.50;;;;;;;6.90;100.00;99368.00;100540;1341;24383;-33
2022/11/09 05:12:14;;;;;;;29.90;15.90;;;;;;;6.89;100.00;99371.05;100526;1342;23093;-33
2022/11/09 05:14:40;;;;;;;29.40;16.00;;;;;;;6.83;100.00;99372.60;100576;1341;22716;-33
2022/11/09 05:17:07;;;;;;;49.70;22.60;;;;;;;6.83;100.00;99374.20;100585;1333;22760;-32
2022/11/09 05:19:33;;;;;;;33.00;16.10;;;;;;;6.86;100.00;99378.45;100560;1333;22921;-32
2022/11/09 05:23:57;;;;;;;46.20;19.50;;;;;;;6.84;100.00;99373.48;100555;1341;23058;-35
2022/11/09 05:24:45;;;;;;;40.70;19.40;;;;;;;6.82;100.00;99375.16;100599;1334;22751;-32
2022/11/09 05:27:11;;;;;;;42.10;19.70;;;;;;;6.75;100.00;99373.75;100623;1339;23094;-36
2022/11/09 05:29:36;;;;;;;28.30;15.80;;;;;;;6.73;100.00;99374.90;100518;1334;24879;-36
2022/11/09 05:32:02;;;;;;;45.80;19.50;;;;;;;6.69;100.00;99376.58;100535;1341;24477;-33
2022/11/09 05:34:27;;;;;;;38.10;18.50;;;;;;;6.65;100.00;99378.63;100649;1333;24382;-32
2022/11/09 05:36:53;;;;;;;25.50;12.70;;;;;;;6.63;100.00;99376.77;100611;1341;23245;-33
2022/11/09 05:39:19;;;;;;;43.20;12.80;;;;;;;6.62;100.00;99372.47;100677;1341;24315;-34
2022/11/09 05:41:44;;;;;;;37.60;19.20;;;;;;;6.62;100.00;99371.50;100556;1341;22890;-33
2022/11/09 05:44:10;;;;;;;22.80;12.90;;;;;;;6.63;100.00;99369.80;100568;1333;22890;-34
2022/11/09 05:46:35;;;;;;;25.40;11.60;;;;;;;6.63;100.00;99367.03;100539;1341;24306;-33
2022/11/09 05:49:02;;;;;;;20.10;11.10;;;;;;;6.62;100.00;99364.48;100475;1333;22752;-33
2022/11/09 05:51:27;;;;;;;27.10;14.10;;;;;;;6.62;100.00;99365.36;100561;1341;24368;-31
2022/11/09 05:53:53;;;;;;;29.60;14.90;;;;;;;6.62;100.00;99370.61;100543;1341;24487;-34
2022/11/09 05:56:18;;;;;;;30.80;16.10;;;;;;;6.66;100.00;99369.02;100427;1341;24391;-34
2022/11/09 05:58:44;;;;;;;26.20;14.60;;;;;;;6.66;100.00;99365.88;100610;1341;24262;-32
2022/11/09 06:01:12;;;;;;;27.80;14.10;;;;;;;6.66;100.00;99367.59;100542;1332;23109;-33
2022/11/09 06:03:39;;;;;;;32.30;14.00;;;;;;;6.65;100.00;99366.91;100645;1333;22641;-40
2022/11/09 06:06:06;;;;;;;32.60;14.30;;;;;;;6.66;100.00;99371.59;100553;1341;24831;-36
2022/11/09 06:08:32;;;;;;;35.90;12.50;;;;;;;6.70;100.00;99375.14;100606;1341;22921;-36
2022/11/09 06:11:01;;;;;;;45.40;20.50;;;;;;;6.77;100.00;99380.19;100608;1333;23227;-32
2022/11/09 06:13:27;;;;;;;43.80;19.60;;;;;;;6.85;100.00;99380.93;100619;1334;23245;-32
2022/11/09 06:15:54;;;;;;;44.50;20.50;;;;;;;6.89;100.00;99379.68;100577;1334;22775;-35
2022/11/09 06:18:22;;;;;;;41.00;18.40;;;;;;;6.90;100.00;99375.80;100591;1340;22501;-36
2022/11/09 06:20:51;;;;;;;34.60;16.50;;;;;;;6.92;100.00;99377.56;100527;1331;24236;-33
2022/11/09 06:23:16;;;;;;;38.10;16.40;;;;;;;6.98;100.00;99377.27;100528;1341;23897;-33
2022/11/09 06:25:42;;;;;;;31.00;15.10;;;;;;;7.05;100.00;99376.84;100541;1341;22967;-33
2022/11/09 06:28:07;;;;;;;38.20;16.80;;;;;;;7.08;100.00;99378.95;100576;1327;22986;-36
2022/11/09 06:30:33;;;;;;;43.20;20.10;;;;;;;7.14;100.00;99382.80;100568;1342;24382;-33
2022/11/09 06:32:59;;;;;;;10.30;7.50;;;;;;;7.22;100.00;99381.66;100556;1341;22888;-36
2022/11/09 06:35:26;;;;;;;56.30;17.30;;;;;;;7.28;100.00;99375.07;100592;1341;22519;-36
2022/11/09 06:37:56;;;;;;;36.40;17.20;;;;;;;7.36;100.00;99378.94;100556;1341;23257;-36
2022/11/09 06:40:22;;;;;;;35.00;16.30;;;;;;;7.42;100.00;99381.07;100589;1340;22892;-33
2022/11/09 06:42:47;;;;;;;42.50;19.90;;;;;;;7.52;100.00;99376.23;100500;1340;23101;-37
2022/11/09 06:45:13;;;;;;;46.10;18.50;;;;;;;7.57;100.00;99371.77;100649;1336;22496;-35
2022/11/09 06:47:39;;;;;;;44.80;20.70;;;;;;;7.58;100.00;99368.90;100599;1341;23001;-33
2022/11/09 06:50:06;;;;;;;44.30;21.80;;;;;;;7.64;100.00;99371.98;100479;1340;24592;-36
2022/11/09 06:52:31;;;;;;;41.60;18.00;;;;;;;7.70;100.00;99366.45;100575;1333;22741;-34
2022/11/09 06:54:57;;;;;;;31.80;15.70;;;;;;;7.73;100.00;99361.55;100499;1341;23101;-33
2022/11/09 06:57:22;;;;;;;39.40;18.40;;;;;;;7.77;100.00;99359.10;100544;1333;22502;-36
2022/11/09 06:59:48;;;;;;;35.40;16.40;;;;;;;7.89;100.00;99352.69;100520;1334;22713;-36
2022/11/09 07:02:16;;;;;;;46.60;18.90;;;;;;;7.91;100.00;99352.61;100472;1341;24380;-33
2022/11/09 07:04:43;;;;;;;36.90;17.80;;;;;;;7.93;100.00;99347.02;100480;1341;23386;-36
2022/11/09 07:07:08;;;;;;;36.60;15.60;;;;;;;7.98;100.00;99342.35;100529;1339;23129;-36
2022/11/09 07:09:34;;;;;;;40.00;18.30;;;;;;;8.03;100.00;99340.67;100505;1333;23219;-33
2022/11/09 07:12:00;;;;;;;37.40;17.40;;;;;;;8.08;100.00;99340.04;100500;1333;24244;-33
2022/11/09 07:14:26;;;;;;;37.80;17.40;;;;;;;8.15;100.00;99344.97;100548;1342;22758;-35
2022/11/09 07:16:51;;;;;;;38.70;18.00;;;;;;;8.21;100.00;99345.00;100581;1341;22884;-33
2022/11/09 07:19:17;;;;;;;38.50;17.90;;;;;;;8.27;100.00;99344.11;100582;1327;22876;-33
2022/11/09 07:21:43;;;;;;;37.70;18.60;;;;;;;8.37;100.00;99338.26;100571;1341;22767;-34
2022/11/09 07:24:08;;;;;;;32.00;15.60;;;;;;;8.41;100.00;99335.48;100564;1327;24363;-37
2022/11/09 07:26:34;;;;;;;35.30;16.40;;;;;;;8.50;100.00;99333.16;100450;1341;22882;-34
2022/11/09 07:29:00;;;;;;;33.60;16.20;;;;;;;8.58;100.00;99322.72;100501;1341;22715;-37
2022/11/09 07:31:28;;;;;;;41.30;18.50;;;;;;;8.64;100.00;99318.56;100525;1334;22897;-37
2022/11/09 07:33:54;;;;;;;48.20;20.20;;;;;;;8.72;100.00;99312.11;100600;1340;23217;-33
2022/11/09 07:36:20;;;;;;;35.20;17.60;;;;;;;8.77;100.00;99309.84;100595;1333;22753;-34
2022/11/09 07:38:46;;;;;;;32.20;15.40;;;;;;;8.84;100.00;99317.58;100571;1342;22522;-33
2022/11/09 07:41:12;;;;;;;45.50;22.10;;;;;;;8.89;100.00;99320.52;100563;1334;24481;-36
2022/11/09 07:43:37;;;;;;;32.30;16.70;;;;;;;8.96;100.00;99316.33;100598;1333;23554;-33
2022/11/09 07:46:04;;;;;;;37.00;16.80;;;;;;;9.01;100.00;99310.65;100561;1340;22507;-36
2022/11/09 07:48:29;;;;;;;40.60;19.40;;;;;;;9.09;100.00;99313.79;100629;1334;23217;-34
2022/11/09 07:50:56;;;;;;;34.10;17.70;;;;;;;9.20;100.00;99311.94;100592;1336;23058;-32
2022/11/09 07:53:22;;;;;;;35.10;17.60;;;;;;;9.21;100.00;99308.44;100566;1335;22763;-33
2022/11/09 07:55:56;;;;;;;40.40;19.70;;;;;;;9.23;100.00;99308.21;100577;1340;22874;-33
2022/11/09 07:58:21;;;;;;;32.20;13.80;;;;;;;9.21;100.00;99304.69;100569;1341;22503;-33
2022/11/09 08:00:47;;;;;;;32.70;16.80;;;;;;;9.21;100.00;99309.42;100548;1341;24894;-32
2022/11/09 08:03:13;;;;;;;44.10;21.00;;;;;;;9.20;100.00;99313.09;100599;1340;24489;-36
2022/11/09 08:05:39;;;;;;;44.40;19.60;;;;;;;9.33;100.00;99310.79;100552;1330;22880;-36
2022/11/09 08:08:06;;;;;;;33.90;17.00;;;;;;;9.42;100.00;99299.91;100553;1341;22838;-33
2022/11/09 08:10:33;;;;;;;34.50;17.80;;;;;;;9.47;100.00;99302.64;100608;1340;23104;-32
2022/11/09 08:13:00;;;;;;;39.10;18.20;;;;;;;9.54;100.00;99304.40;100511;1335;22755;-33
2022/11/09 08:15:26;;;;;;;29.70;15.00;;;;;;;9.63;100.00;99308.77;100596;1328;23354;-33
2022/11/09 08:17:52;;;;;;;26.80;13.70;;;;;;;9.79;100.00;99308.45;100657;1340;23217;-36
2022/11/09 08:20:18;;;;;;;34.70;17.00;;;;;;;9.96;100.00;99309.04;100554;1342;22597;-37
2022/11/09 08:22:45;;;;;;;45.70;16.60;;;;;;;10.18;100.00;99304.79;100615;1333;24492;-34
2022/11/09 08:25:10;;;;;;;33.20;16.30;;;;;;;10.37;100.00;99307.38;100541;1337;25306;-34
2022/11/09 08:27:39;;;;;;;34.70;14.80;;;;;;;10.51;100.00;99302.42;100530;1341;23747;-35
2022/11/09 08:30:06;;;;;;;29.70;14.60;;;;;;;10.70;100.00;99295.94;100579;1341;22524;-35
2022/11/09 08:32:32;;;;;;;26.60;13.70;;;;;;;10.81;100.00;99290.73;100568;1341;22784;-34
2022/11/09 08:34:58;;;;;;;36.20;18.50;;;;;;;11.00;100.00;99291.80;100570;1340;24245;-35
2022/11/09 08:37:23;;;;;;;27.90;15.50;;;;;;;11.15;100.00;99289.27;100582;1341;22790;-37
2022/11/09 08:39:49;;;;;;;38.40;20.00;;;;;;;11.47;100.00;99293.47;100554;1340;24467;-34
2022/11/09 08:42:14;;;;;;;35.50;18.50;;;;;;;11.58;100.00;99294.02;100519;1334;22727;-35
2022/11/09 08:44:41;;;;;;;25.30;14.20;;;;;;;11.69;100.00;99291.21;100574;1333;23109;-38
2022/11/09 08:47:06;;;;;;;28.80;14.00;;;;;;;11.81;99.56;99285.73;100497;1341;23235;-35
2022/11/09 08:49:32;;;;;;;22.60;12.70;;;;;;;11.81;97.17;99295.42;100514;1334;23237;-33
2022/11/09 08:51:58;;;;;;;36.90;18.60;;;;;;;11.81;97.89;99293.87;100554;1340;22737;-36
2022/11/09 08:54:23;;;;;;;32.90;18.00;;;;;;;11.89;97.67;99291.75;100542;1341;22752;-33
2022/11/09 08:56:49;;;;;;;32.10;15.60;;;;;;;11.85;97.37;99290.70;100422;1333;23096;-36
2022/11/09 08:59:15;;;;;;;42.10;17.00;;;;;;;12.00;96.16;99291.45;100510;1334;22873;-37
2022/11/09 09:01:40;;;;;;;26.90;15.80;;;;;;;12.07;93.91;99289.83;100510;1336;22871;-37
2022/11/09 09:04:08;;;;;;;24.40;12.80;;;;;;;12.04;94.39;99291.73;100603;1333;22508;-37
2022/11/09 09:06:34;;;;;;;31.30;15.50;;;;;;;12.10;93.44;99295.61;100469;1340;22518;-37
2022/11/09 09:09:00;;;;;;;27.00;15.10;;;;;;;12.09;94.97;99294.14;100621;1340;23067;-34
2022/11/09 09:11:26;;;;;;;22.10;14.00;;;;;;;12.25;96.08;99291.34;100550;1333;22512;-35
2022/11/09 09:13:52;;;;;;;30.80;18.50;;;;;;;12.47;95.74;99294.64;100630;1333;24385;-38
2022/11/09 09:16:18;;;;;;;29.50;15.50;;;;;;;12.67;93.32;99290.10;100551;1341;22749;-33
2022/11/09 09:18:43;;;;;;;34.20;18.40;;;;;;;12.70;90.52;99285.59;100599;1340;24001;-38
2022/11/09 09:21:10;;;;;;;28.90;14.80;;;;;;;12.67;91.50;99288.13;100556;1340;23229;-33
2022/11/09 09:23:36;;;;;;;36.10;18.60;;;;;;;12.91;88.06;99288.14;100501;1340;22737;-33
2022/11/09 09:26:01;;;;;;;32.00;14.90;;;;;;;12.94;87.21;99293.73;100508;1340;25468;-36
2022/11/09 09:28:27;;;;;;;32.00;14.90;;;;;;;12.91;86.29;99291.79;100466;1341;23270;-35
2022/11/09 09:30:53;;;;;;;29.30;15.80;;;;;;;12.92;85.15;99286.55;100564;1341;23036;-36
2022/11/09 09:33:18;;;;;;;22.90;12.40;;;;;;;12.88;85.41;99285.41;100543;1334;22896;-36
2022/11/09 09:35:44;;;;;;;23.30;12.20;;;;;;;12.92;88.15;99282.98;100505;1342;22736;-36
2022/11/09 09:38:10;;;;;;;25.90;16.00;;;;;;;13.22;86.98;99281.69;100600;1341;22848;-34
2022/11/09 09:40:40;;;;;;;18.90;11.30;;;;;;;13.53;82.73;99278.23;100519;1340;24432;-34
2022/11/09 09:43:16;;;;;;;32.30;18.10;;;;;;;13.37;84.02;99275.77;100488;1334;22530;-36
2022/11/09 09:45:46;;;;;;;33.30;18.90;;;;;;;13.48;84.89;99274.94;100631;1334;25330;-37
2022/11/09 09:48:12;;;;;;;23.40;15.90;;;;;;;13.64;82.48;99272.01;100527;1340;22765;-37
2022/11/09 09:50:46;;;;;;;23.30;13.90;;;;;;;13.79;78.26;99272.98;100588;1341;23283;-34
2022/11/09 09:53:17;;;;;;;24.30;14.90;;;;;;;13.70;77.21;99272.33;100582;1341;22521;-34
2022/11/09 09:55:46;;;;;;;20.30;11.80;;;;;;;13.56;78.18;99273.96;100596;1341;22513;-34
2022/11/09 09:58:17;;;;;;;30.30;16.10;;;;;;;13.69;78.64;99277.40;100619;1341;22515;-34
2022/11/09 10:00:43;;;;;;;35.20;16.60;;;;;;;13.74;79.49;99277.03;100585;1334;23530;-35
2022/11/09 10:03:14;;;;;;;26.40;14.40;;;;;;;13.89;76.97;99270.09;100535;1341;22869;-38
2022/11/09 10:05:49;;;;;;;25.30;14.40;;;;;;;13.95;76.13;99268.33;100629;1340;22911;-36
2022/11/09 10:08:20;;;;;;;22.90;13.90;;;;;;;13.98;75.98;99267.06;100590;1341;23894;-35
2022/11/09 10:10:53;;;;;;;29.60;15.40;;;;;;;13.89;75.80;99261.87;100585;1340;24366;-36
2022/11/09 10:13:25;;;;;;;23.80;9.80;;;;;;;13.64;76.33;99262.90;100592;1341;22524;-36
2022/11/09 10:15:57;;;;;;;26.40;13.10;;;;;;;13.63;77.56;99267.14;100531;1333;22523;-36
2022/11/09 10:18:30;;;;;;;28.00;15.80;;;;;;;13.64;77.29;99268.39;100597;1341;23269;-36
2022/11/09 10:21:07;;;;;;;27.60;13.70;;;;;;;13.61;78.75;99268.66;100594;1337;22503;-33
2022/11/09 10:23:37;;;;;;;23.20;13.60;;;;;;;13.85;77.68;99266.14;100637;1327;24303;-36
2022/11/09 10:26:15;;;;;;;31.30;14.90;;;;;;;13.80;77.52;99269.95;100590;1341;24470;-36
2022/11/09 10:28:41;;;;;;;23.60;14.00;;;;;;;13.70;79.11;99265.52;100547;1341;23228;-33
2022/11/09 10:31:13;;;;;;;28.30;14.30;;;;;;;13.80;78.60;99269.25;100521;1342;23105;-39
2022/11/09 10:33:39;;;;;;;21.40;12.40;;;;;;;13.81;77.39;99273.65;100582;1334;24264;-36
2022/11/09 10:36:14;;;;;;;22.60;11.20;;;;;;;13.78;77.26;99278.24;100556;1341;23124;-37
2022/11/09 10:38:44;;;;;;;19.20;11.60;;;;;;;13.73;77.87;99277.99;100525;1341;22512;-36
2022/11/09 10:41:28;;;;;;;27.00;13.00;;;;;;;13.78;77.58;99276.08;100498;1342;24383;-36
2022/11/09 10:43:54;;;;;;;24.60;13.40;;;;;;;13.83;78.24;99277.34;100538;1341;22540;-33
2022/11/09 10:46:20;;;;;;;28.20;16.20;;;;;;;13.90;77.34;99280.95;100548;1340;23157;-36
2022/11/09 10:48:46;;;;;;;19.80;12.70;;;;;;;13.90;76.36;99281.39;100520;1341;22738;-34
2022/11/09 10:51:18;;;;;;;25.00;13.90;;;;;;;13.94;76.55;99283.45;100502;1333;22724;-36
2022/11/09 10:53:44;;;;;;;15.40;8.10;;;;;;;13.83;75.92;99284.52;100572;1340;25336;-34
2022/11/09 10:56:13;;;;;;;29.70;13.50;;;;;;;13.88;76.32;99286.71;100609;1340;22674;-32
2022/11/09 10:58:45;;;;;;;21.10;12.50;;;;;;;13.83;76.26;99290.58;100602;1334;23101;-34
2022/11/09 11:01:12;;;;;;;23.20;13.60;;;;;;;13.80;76.74;99293.59;100555;1340;25285;-36
2022/11/09 11:03:38;;;;;;;21.50;15.10;;;;;;;13.77;77.23;99294.52;100575;1333;22467;-34
2022/11/09 11:06:06;;;;;;;24.80;14.40;;;;;;;13.85;75.96;99291.39;100590;1341;24966;-34
2022/11/09 11:08:35;;;;;;;23.30;13.70;;;;;;;13.81;74.33;99293.29;100541;1341;22507;-36